TAF KBDR
KBDR 090533Z 0906/1006 31009KT P6SM SCT025 SCT035 FM090800 31009KT P6SM SCT250 FM092100 29005KT P6SM BKN250 FM100000 VRB03KT P6SM BKN100=
METAR KBDR
WC KBDR
WS KBDR
WV KBDR